createdAt,value
2022-10-23T00:00:27.345Z,99.99
2022-10-23T00:01:27.272Z,99.99
2022-10-23T00:02:27.352Z,99.99
2022-10-23T00:03:27.250Z,99.99
2022-10-23T00:04:27.236Z,99.99
2022-10-23T00:05:27.230Z,99.99
2022-10-23T00:06:27.215Z,99.99
2022-10-23T00:07:27.269Z,99.99
2022-10-23T00:08:27.191Z,99.99
2022-10-23T00:09:27.183Z,99.99
2022-10-23T00:10:27.170Z,99.99
2022-10-23T00:11:27.158Z,99.99
2022-10-23T00:12:27.167Z,99.99
2022-10-23T00:13:27.140Z,99.99
2022-10-23T00:14:27.162Z,99.99
2022-10-23T00:15:27.134Z,99.99
2022-10-23T00:16:27.099Z,99.99
2022-10-23T00:17:27.111Z,99.99
2022-10-23T00:18:27.079Z,99.99
2022-10-23T00:19:27.089Z,99.99
2022-10-23T00:20:27.058Z,99.99
2022-10-23T00:21:27.046Z,99.99
2022-10-23T00:22:27.053Z,99.99
2022-10-23T00:23:27.022Z,99.99
2022-10-23T00:24:27.013Z,99.99
2022-10-23T00:25:27.019Z,99.99
2022-10-23T00:26:26.989Z,99.99
2022-10-23T00:27:26.997Z,99.99
2022-10-23T00:28:26.965Z,99.99
2022-10-23T00:29:26.979Z,99.99
2022-10-23T00:30:26.961Z,99.99
2022-10-23T00:31:26.967Z,99.99
2022-10-23T00:32:26.987Z,99.99
2022-10-23T00:33:26.909Z,99.99
2022-10-23T00:34:26.900Z,99.99
2022-10-23T00:35:26.887Z,99.99
2022-10-23T00:36:26.895Z,99.99
2022-10-23T00:37:26.862Z,99.99
2022-10-23T00:38:26.850Z,99.99
2022-10-23T00:39:26.843Z,99.99
2022-10-23T00:40:26.828Z,99.99
2022-10-23T00:41:26.839Z,99.99
2022-10-23T00:42:26.806Z,99.99
2022-10-23T00:43:26.794Z,99.99
2022-10-23T00:44:26.783Z,99.99
2022-10-23T00:45:26.775Z,99.99
2022-10-23T00:46:26.797Z,99.99
2022-10-23T00:47:26.750Z,99.99
2022-10-23T00:48:26.737Z,99.99
2022-10-23T00:49:26.728Z,99.99
2022-10-23T00:50:26.715Z,99.99
2022-10-23T00:51:26.725Z,99.99
2022-10-23T00:52:26.692Z,99.99
2022-10-23T00:53:26.688Z,99.99
2022-10-23T00:54:26.670Z,99.99
2022-10-23T00:55:26.681Z,99.99
2022-10-23T00:56:26.670Z,99.99
2022-10-23T00:57:26.637Z,99.99
2022-10-23T00:58:26.625Z,99.99
2022-10-23T00:59:26.637Z,99.99
2022-10-23T01:00:26.602Z,99.99
2022-10-23T01:01:26.770Z,99.99
2022-10-23T01:02:26.663Z,99.99
2022-10-23T01:03:26.592Z,99.99
2022-10-23T01:04:26.555Z,99.99
2022-10-23T01:05:26.549Z,99.99
2022-10-23T01:06:26.555Z,99.99
2022-10-23T01:07:26.529Z,99.99
2022-10-23T01:08:26.510Z,99.99
2022-10-23T01:09:26.500Z,99.99
2022-10-23T01:10:26.488Z,99.99
2022-10-23T01:11:26.498Z,99.99
2022-10-23T01:12:26.468Z,99.99
2022-10-23T01:13:26.456Z,99.99
2022-10-23T01:14:26.443Z,99.99
2022-10-23T01:15:26.452Z,99.99
2022-10-23T01:16:26.440Z,99.99
2022-10-23T01:17:26.410Z,99.99
2022-10-23T01:18:26.436Z,99.99
2022-10-23T01:19:26.385Z,99.99
2022-10-23T01:20:26.375Z,99.99
2022-10-23T01:21:26.384Z,99.99
2022-10-23T01:22:26.377Z,99.99
2022-10-23T01:23:26.341Z,99.99
2022-10-23T01:24:26.342Z,99.99
2022-10-23T01:25:26.321Z,99.99
2022-10-23T01:26:26.308Z,99.99
2022-10-23T01:27:26.315Z,99.99
2022-10-23T01:28:26.306Z,99.99
2022-10-23T01:29:26.272Z,99.99
2022-10-23T01:30:26.285Z,99.99
2022-10-23T01:31:26.249Z,99.99
2022-10-23T01:32:26.258Z,99.99
2022-10-23T01:33:26.248Z,99.99
2022-10-23T01:34:26.235Z,99.99
2022-10-23T01:35:26.204Z,99.99
2022-10-23T01:36:26.197Z,99.99
2022-10-23T01:37:26.182Z,99.99
2022-10-23T01:38:26.194Z,99.99
2022-10-23T01:39:26.158Z,99.99
2022-10-23T01:40:26.149Z,99.99
2022-10-23T01:41:26.138Z,99.99
2022-10-23T01:42:26.126Z,99.99
2022-10-23T01:43:26.137Z,99.99
2022-10-23T01:44:26.104Z,99.99
2022-10-23T01:45:26.091Z,99.99
2022-10-23T01:46:26.080Z,99.99
2022-10-23T01:47:26.103Z,99.99
2022-10-23T01:48:26.113Z,99.99
2022-10-23T01:49:26.044Z,99.99
2022-10-23T01:50:26.055Z,99.99
2022-10-23T01:51:26.027Z,99.99
2022-10-23T01:52:26.020Z,99.99
2022-10-23T01:53:26.022Z,99.99
2022-10-23T01:54:25.990Z,99.99
2022-10-23T01:55:25.976Z,99.99
2022-10-23T01:56:25.967Z,99.99
2022-10-23T01:57:25.957Z,99.99
2022-10-23T01:58:25.948Z,99.99
2022-10-23T01:59:26.077Z,99.99
2022-10-23T02:00:25.925Z,99.99
2022-10-23T02:01:26.085Z,99.99
2022-10-23T02:02:25.944Z,99.99
2022-10-23T02:03:25.888Z,99.99
2022-10-23T02:04:25.897Z,99.99
2022-10-23T02:05:25.885Z,99.99
2022-10-23T02:06:25.871Z,99.99
2022-10-23T02:07:25.868Z,99.99
2022-10-23T02:08:25.830Z,99.99
2022-10-23T02:09:25.823Z,99.99
2022-10-23T02:10:25.812Z,99.99
2022-10-23T02:11:25.798Z,99.99
2022-10-23T02:13:25.802Z,99.99
2022-10-23T02:14:25.763Z,99.99
2022-10-23T02:15:25.773Z,99.99
2022-10-23T02:16:25.740Z,99.99
2022-10-23T02:17:25.778Z,99.99
2022-10-23T02:18:25.721Z,99.99
2022-10-23T02:19:25.708Z,99.99
2022-10-23T02:20:25.752Z,99.99
2022-10-23T02:21:25.846Z,99.99
2022-10-23T02:22:25.753Z,99.99
2022-10-23T02:23:25.663Z,99.99
2022-10-23T02:24:25.649Z,99.99
2022-10-23T02:25:25.691Z,99.99
2022-10-23T02:26:25.659Z,99.99
2022-10-23T02:27:25.686Z,99.99
2022-10-23T02:28:25.605Z,99.99
2022-10-23T02:29:25.593Z,99.99
2022-10-23T02:30:25.623Z,99.99
2022-10-23T02:31:25.663Z,99.99
2022-10-23T02:32:25.559Z,99.99
2022-10-23T02:33:25.633Z,99.99
2022-10-23T02:34:25.616Z,99.99
2022-10-23T02:35:25.579Z,99.99
2022-10-23T02:36:25.691Z,99.99
2022-10-23T02:37:25.612Z,99.99
2022-10-23T02:38:25.553Z,99.99
2022-10-23T02:39:25.525Z,99.99
2022-10-23T02:40:25.467Z,99.99
2022-10-23T02:41:25.463Z,99.99
2022-10-23T02:42:25.595Z,99.99
2022-10-23T02:43:25.599Z,99.99
2022-10-23T02:44:25.440Z,99.99
2022-10-23T02:45:25.435Z,99.99
2022-10-23T02:46:25.441Z,99.99
2022-10-23T02:47:25.391Z,99.99
2022-10-23T02:48:25.381Z,99.99
2022-10-23T02:49:25.367Z,99.99
2022-10-23T02:50:25.379Z,99.99
2022-10-23T02:51:25.344Z,99.99
2022-10-23T02:52:25.352Z,99.99
2022-10-23T02:53:25.327Z,99.99
2022-10-23T02:54:25.326Z,99.99
2022-10-23T02:55:25.299Z,99.99
2022-10-23T02:56:25.303Z,99.99
2022-10-23T02:57:25.297Z,99.99
2022-10-23T02:58:25.267Z,99.99
2022-10-23T02:59:25.264Z,99.99
2022-10-23T03:00:25.311Z,99.99
2022-10-23T03:01:25.340Z,99.99
2022-10-23T03:02:25.945Z,99.99
2022-10-23T03:03:25.212Z,99.99
2022-10-23T03:04:25.199Z,99.99
2022-10-23T03:05:25.186Z,99.99
2022-10-23T03:06:25.189Z,99.99
2022-10-23T03:07:25.183Z,99.99
2022-10-23T03:08:25.152Z,99.99
2022-10-23T03:09:25.145Z,99.99
2022-10-23T03:10:25.148Z,99.99
2022-10-23T03:11:25.117Z,99.99
2022-10-23T03:12:25.129Z,99.99
2022-10-23T03:13:25.094Z,99.99
2022-10-23T03:14:25.380Z,99.99
2022-10-23T03:15:25.076Z,99.99
2022-10-23T03:16:25.060Z,99.99
2022-10-23T03:17:25.049Z,99.99
2022-10-23T03:18:25.038Z,99.99
2022-10-23T03:19:25.051Z,99.99
2022-10-23T03:20:25.015Z,99.99
2022-10-23T03:21:25.005Z,99.99
2022-10-23T03:22:24.993Z,99.99
2022-10-23T03:23:24.981Z,99.99
2022-10-23T03:24:24.988Z,99.99
2022-10-23T03:25:24.979Z,99.99
2022-10-23T03:26:24.961Z,99.99
2022-10-23T03:27:25.018Z,99.99
2022-10-23T03:28:24.923Z,99.99
2022-10-23T03:29:24.935Z,99.99
2022-10-23T03:30:24.903Z,99.99
2022-10-23T03:31:24.889Z,99.99
2022-10-23T03:32:24.877Z,99.99
2022-10-23T03:33:24.874Z,99.99
2022-10-23T03:34:24.879Z,99.99
2022-10-23T03:35:24.844Z,99.99
2022-10-23T03:36:24.831Z,99.99
2022-10-23T03:37:24.821Z,99.99
2022-10-23T03:38:24.815Z,99.99
2022-10-23T03:39:24.799Z,99.99
2022-10-23T03:40:24.839Z,99.99
2022-10-23T03:41:24.778Z,99.99
2022-10-23T03:42:24.788Z,99.99
2022-10-23T03:43:24.779Z,99.99
2022-10-23T03:44:24.761Z,99.99
2022-10-23T03:45:24.731Z,99.99
2022-10-23T03:46:24.742Z,99.99
2022-10-23T03:47:24.729Z,99.99
2022-10-23T03:48:24.716Z,99.99
2022-10-23T03:49:24.706Z,99.99
2022-10-23T03:50:24.699Z,99.99
2022-10-23T03:51:24.664Z,99.99
2022-10-23T03:53:24.662Z,99.99
2022-10-23T03:54:24.628Z,99.99
2022-10-23T03:55:24.617Z,99.99
2022-10-23T03:56:24.605Z,99.99
2022-10-23T03:57:24.595Z,99.99
2022-10-23T03:58:24.621Z,99.99
2022-10-23T03:59:24.577Z,99.99
2022-10-23T04:00:24.559Z,99.99
2022-10-23T04:01:24.708Z,99.99
2022-10-23T04:02:24.667Z,99.99
2022-10-23T04:03:24.553Z,99.99
2022-10-23T04:04:24.534Z,99.99
2022-10-23T04:05:24.503Z,99.99
2022-10-23T04:06:24.490Z,99.99
2022-10-23T04:07:24.482Z,99.99
2022-10-23T04:08:24.468Z,99.99
2022-10-23T04:09:24.481Z,99.99
2022-10-23T04:10:24.470Z,99.99
2022-10-23T04:11:24.435Z,99.99
2022-10-23T04:12:24.422Z,99.99
2022-10-23T04:13:24.415Z,99.99
2022-10-23T04:14:24.417Z,99.99
2022-10-23T04:15:24.412Z,99.99
2022-10-23T04:16:24.401Z,99.99
2022-10-23T04:17:24.412Z,99.99
2022-10-23T04:18:24.354Z,99.99
2022-10-23T04:19:24.344Z,99.99
2022-10-23T04:20:24.332Z,99.99
2022-10-23T04:21:24.345Z,99.99
2022-10-23T04:22:27.487Z,99.99
2022-10-23T04:23:24.303Z,99.99
2022-10-23T04:24:24.289Z,99.99
2022-10-23T04:25:24.276Z,99.99
2022-10-23T04:26:24.287Z,99.99
2022-10-23T04:27:24.277Z,99.99
2022-10-23T04:28:24.242Z,99.99
2022-10-23T04:29:24.232Z,99.99
2022-10-23T04:30:24.236Z,99.99
2022-10-23T04:31:24.211Z,99.99
2022-10-23T04:32:24.218Z,99.99
2022-10-23T04:33:24.215Z,99.99
2022-10-23T04:34:24.172Z,99.99
2022-10-23T04:35:24.163Z,99.99
2022-10-23T04:36:24.149Z,99.99
2022-10-23T04:37:24.140Z,99.99
2022-10-23T04:38:24.150Z,99.99
2022-10-23T04:39:24.150Z,99.99
2022-10-23T04:40:24.105Z,99.99
2022-10-23T04:41:24.116Z,99.99
2022-10-23T04:42:24.136Z,99.99
2022-10-23T04:43:24.091Z,99.99
2022-10-23T04:44:24.058Z,99.99
2022-10-23T04:45:24.049Z,99.99
2022-10-23T04:46:24.075Z,99.99
2022-10-23T04:47:24.027Z,99.99
2022-10-23T04:48:26.894Z,99.99
2022-10-23T04:49:25.023Z,99.99
2022-10-23T04:50:23.990Z,99.99
2022-10-23T04:51:23.980Z,99.99
2022-10-23T04:52:23.988Z,99.99
2022-10-23T04:53:23.958Z,99.99
2022-10-23T04:54:23.986Z,99.99
2022-10-23T04:55:23.935Z,99.99
2022-10-23T04:56:23.943Z,99.99
2022-10-23T04:57:23.911Z,99.99
2022-10-23T04:58:23.898Z,99.99
2022-10-23T04:59:23.909Z,99.99
2022-10-23T05:00:23.881Z,99.99
2022-10-23T05:01:24.006Z,99.99
2022-10-23T05:02:23.871Z,99.99
2022-10-23T05:03:23.864Z,99.99
2022-10-23T05:04:23.830Z,99.99
2022-10-23T05:05:23.823Z,99.99
2022-10-23T05:06:23.834Z,99.99
2022-10-23T05:07:23.800Z,99.99
2022-10-23T05:08:23.789Z,99.99
2022-10-23T05:09:23.796Z,99.99
2022-10-23T05:10:23.762Z,99.99
2022-10-23T05:11:23.753Z,99.99
2022-10-23T05:12:23.739Z,99.99
2022-10-23T05:13:23.730Z,99.99
2022-10-23T05:14:23.737Z,99.99
2022-10-23T05:15:23.705Z,99.99
2022-10-23T05:16:23.716Z,99.99
2022-10-23T05:17:23.683Z,99.99
2022-10-23T05:18:23.690Z,99.99
2022-10-23T05:19:24.462Z,99.99
2022-10-23T05:20:23.649Z,99.99
2022-10-23T05:21:23.637Z,99.99
2022-10-23T05:22:23.849Z,99.99
2022-10-23T05:23:23.615Z,99.99
2022-10-23T05:24:23.601Z,99.99
2022-10-23T05:25:23.592Z,99.99
2022-10-23T05:26:23.600Z,99.99
2022-10-23T05:27:23.594Z,99.99
2022-10-23T05:28:23.558Z,99.99
2022-10-23T05:29:23.554Z,99.99
2022-10-23T05:30:23.535Z,99.99
2022-10-23T05:31:23.526Z,99.99
2022-10-23T05:32:23.519Z,99.99
2022-10-23T05:33:23.525Z,99.99
2022-10-23T05:34:23.509Z,99.99
2022-10-23T05:35:23.479Z,99.99
2022-10-23T05:36:23.471Z,99.99
2022-10-23T05:37:23.456Z,99.99
2022-10-23T05:38:23.465Z,99.99
2022-10-23T05:39:23.454Z,99.99
2022-10-23T05:40:23.422Z,99.99
2022-10-23T05:41:23.411Z,99.99
2022-10-23T05:42:23.417Z,99.99
2022-10-23T05:43:23.388Z,99.99
2022-10-23T05:44:23.382Z,99.99
2022-10-23T05:45:23.385Z,99.99
2022-10-23T05:46:23.353Z,99.99
2022-10-23T05:47:23.344Z,99.99
2022-10-23T05:48:34.166Z,99.99
2022-10-23T05:49:24.340Z,99.99
2022-10-23T05:50:23.328Z,99.99
2022-10-23T05:51:23.324Z,99.99
2022-10-23T05:52:23.285Z,99.99
2022-10-23T05:53:23.275Z,99.99
2022-10-23T05:54:23.286Z,99.99
2022-10-23T05:55:23.252Z,99.99
2022-10-23T05:56:23.238Z,99.99
2022-10-23T05:57:23.239Z,99.99
2022-10-23T05:58:23.222Z,99.99
2022-10-23T05:59:23.427Z,99.99
2022-10-23T06:00:23.201Z,99.99
2022-10-23T06:01:23.318Z,99.99
2022-10-23T06:02:23.306Z,99.99
2022-10-23T06:03:23.163Z,99.99
2022-10-23T06:04:23.184Z,99.99
2022-10-23T06:05:23.140Z,99.99
2022-10-23T06:06:23.147Z,99.99
2022-10-23T06:07:23.116Z,99.99
2022-10-23T06:08:23.104Z,99.99
2022-10-23T06:09:23.097Z,99.99
2022-10-23T06:10:23.102Z,99.99
2022-10-23T06:11:23.123Z,99.99
2022-10-23T06:12:23.058Z,99.99
2022-10-23T06:13:23.049Z,99.99
2022-10-23T06:14:23.038Z,99.99
2022-10-23T06:15:23.048Z,99.99
2022-10-23T06:16:23.015Z,99.99
2022-10-23T06:17:23.023Z,99.99
2022-10-23T06:18:22.993Z,99.99
2022-10-23T06:19:22.979Z,99.99
2022-10-23T06:20:26.555Z,99.99
2022-10-23T06:21:23.955Z,99.99
2022-10-23T06:22:22.967Z,99.99
2022-10-23T06:23:22.935Z,99.99
2022-10-23T06:24:22.924Z,99.99
2022-10-23T06:25:22.911Z,99.99
2022-10-23T06:26:22.926Z,99.99
2022-10-23T06:27:22.888Z,99.99
2022-10-23T06:28:22.899Z,99.99
2022-10-23T06:29:22.874Z,99.99
2022-10-23T06:30:22.889Z,99.99
2022-10-23T06:31:22.844Z,99.99
2022-10-23T06:32:22.833Z,99.99
2022-10-23T06:33:22.843Z,99.99
2022-10-23T06:34:22.810Z,99.99
2022-10-23T06:35:22.797Z,99.99
2022-10-23T06:36:22.790Z,99.99
2022-10-23T06:37:22.800Z,99.99
2022-10-23T06:38:22.782Z,99.99
2022-10-23T06:39:23.207Z,99.99
2022-10-23T06:40:22.742Z,99.99
2022-10-23T06:41:22.729Z,99.99
2022-10-23T06:42:22.741Z,99.99
2022-10-23T06:43:22.709Z,99.99
2022-10-23T06:44:22.718Z,99.99
2022-10-23T06:45:22.684Z,99.99
2022-10-23T06:46:22.675Z,99.99
2022-10-23T06:47:22.663Z,99.99
2022-10-23T06:48:22.652Z,99.99
2022-10-23T06:49:22.661Z,99.99
2022-10-23T06:50:22.632Z,99.99
2022-10-23T06:51:22.617Z,99.99
2022-10-23T06:52:45.533Z,99.99
2022-10-23T06:53:23.592Z,99.99
2022-10-23T06:54:22.621Z,99.99
2022-10-23T06:55:22.573Z,99.99
2022-10-23T06:56:22.581Z,99.99
2022-10-23T06:57:22.547Z,99.99
2022-10-23T06:58:22.562Z,99.99
2022-10-23T06:59:22.523Z,99.99
2022-10-23T07:00:22.534Z,99.99
2022-10-23T07:01:22.688Z,99.99
2022-10-23T07:02:22.494Z,99.99
2022-10-23T07:03:22.479Z,99.99
2022-10-23T07:04:22.496Z,99.99
2022-10-23T07:05:22.460Z,99.99
2022-10-23T07:06:22.447Z,99.99
2022-10-23T07:07:22.434Z,99.99
2022-10-23T07:08:22.425Z,99.99
2022-10-23T07:09:22.433Z,99.99
2022-10-23T07:10:22.418Z,99.99
2022-10-23T07:11:22.395Z,99.99
2022-10-23T07:12:22.380Z,99.99
2022-10-23T07:13:22.370Z,99.99
2022-10-23T07:14:22.378Z,99.99
2022-10-23T07:15:22.371Z,99.99
2022-10-23T07:16:22.341Z,99.99
2022-10-23T07:17:22.325Z,99.99
2022-10-23T07:18:22.346Z,99.99
2022-10-23T07:19:22.306Z,99.99
2022-10-23T07:20:22.291Z,99.99
2022-10-23T07:21:22.300Z,99.99
2022-10-23T07:22:22.272Z,99.99
2022-10-23T07:23:22.274Z,99.99
2022-10-23T07:24:22.271Z,99.99
2022-10-23T07:25:22.257Z,99.99
2022-10-23T07:26:22.239Z,99.99
2022-10-23T07:27:22.209Z,99.99
2022-10-23T07:28:22.206Z,99.99
2022-10-23T07:29:22.186Z,99.99
2022-10-23T07:30:22.198Z,99.99
2022-10-23T07:31:24.402Z,99.99
2022-10-23T07:32:23.152Z,99.99
2022-10-23T07:33:22.141Z,99.99
2022-10-23T07:34:22.153Z,99.99
2022-10-23T07:35:22.138Z,99.99
2022-10-23T07:36:22.108Z,99.99
2022-10-23T07:37:22.096Z,99.99
2022-10-23T07:38:22.091Z,99.99
2022-10-23T07:39:22.073Z,99.99
2022-10-23T07:40:22.082Z,99.99
2022-10-23T07:41:22.053Z,99.99
2022-10-23T07:42:22.059Z,99.99
2022-10-23T07:43:22.106Z,99.99
2022-10-23T07:44:24.336Z,99.99
2022-10-23T07:45:23.030Z,99.99
2022-10-23T07:46:22.002Z,99.99
2022-10-23T07:47:21.981Z,99.99
2022-10-23T07:48:21.974Z,99.99
2022-10-23T07:49:21.959Z,99.99
2022-10-23T07:50:21.951Z,99.99
2022-10-23T07:51:21.959Z,99.99
2022-10-23T07:52:21.927Z,99.99
2022-10-23T07:53:21.915Z,99.99
2022-10-23T07:54:21.905Z,99.99
2022-10-23T07:55:21.913Z,99.99
2022-10-23T07:56:21.881Z,99.99
2022-10-23T07:57:21.868Z,99.99
2022-10-23T07:58:21.876Z,99.99
2022-10-23T07:59:21.846Z,99.99
2022-10-23T08:00:21.873Z,99.99
2022-10-23T08:01:21.902Z,99.99
2022-10-23T08:02:21.867Z,99.99
2022-10-23T08:03:21.803Z,99.99
2022-10-23T08:04:21.810Z,99.99
2022-10-23T08:05:21.777Z,99.99
2022-10-23T08:06:21.786Z,99.99
2022-10-23T08:07:21.755Z,99.99
2022-10-23T08:08:21.774Z,99.99
2022-10-23T08:09:21.754Z,99.99
2022-10-23T08:10:21.743Z,99.99
2022-10-23T08:11:21.709Z,99.99
2022-10-23T08:12:21.700Z,99.99
2022-10-23T08:13:21.687Z,99.99
2022-10-23T08:14:21.758Z,99.99
2022-10-23T08:15:21.666Z,99.99
2022-10-23T08:16:21.656Z,99.99
2022-10-23T08:17:24.019Z,99.99
2022-10-23T08:18:21.655Z,99.99
2022-10-23T08:19:21.641Z,99.99
2022-10-23T08:20:21.626Z,99.99
2022-10-23T08:21:21.689Z,99.99
2022-10-23T08:22:21.591Z,99.99
2022-10-23T08:23:21.579Z,99.99
2022-10-23T08:24:21.566Z,99.99
2022-10-23T08:25:24.864Z,99.99
2022-10-23T08:26:21.563Z,99.77
2022-10-23T08:27:21.552Z,99.62
2022-10-23T08:28:21.640Z,99.77
2022-10-23T08:29:21.506Z,99.52
2022-10-23T08:30:21.514Z,99.72
2022-10-23T08:31:21.508Z,99.11
2022-10-23T08:32:21.473Z,99.47
2022-10-23T08:33:21.460Z,99.27
2022-10-23T08:34:21.451Z,99.11
2022-10-23T08:35:21.460Z,98.91
2022-10-23T08:36:21.430Z,98.81
2022-10-23T08:37:21.418Z,97.80
2022-10-23T08:38:21.405Z,97.85
2022-10-23T08:39:21.577Z,98.05
2022-10-23T08:40:21.443Z,97.14
2022-10-23T08:41:21.370Z,97.44
2022-10-23T08:42:21.365Z,97.24
2022-10-23T08:43:21.357Z,97.40
2022-10-23T08:44:21.449Z,96.69
2022-10-23T08:45:21.346Z,95.98
2022-10-23T08:46:21.331Z,96.48
2022-10-23T08:47:21.301Z,95.98
2022-10-23T08:48:21.292Z,95.98
2022-10-23T08:49:21.279Z,95.47
2022-10-23T08:50:21.382Z,95.17
2022-10-23T08:51:21.256Z,95.26
2022-10-23T08:52:21.249Z,95.32
2022-10-23T08:53:21.234Z,94.92
2022-10-23T08:54:21.245Z,94.92
2022-10-23T08:55:21.212Z,94.21
2022-10-23T08:56:21.203Z,94.10
2022-10-23T08:57:21.188Z,93.35
2022-10-23T08:58:21.177Z,93.25
2022-10-23T08:59:21.186Z,93.76
2022-10-23T09:00:21.229Z,93.10
2022-10-23T09:01:21.403Z,93.41
2022-10-23T09:02:21.290Z,92.49
2022-10-23T09:03:21.130Z,92.65
2022-10-23T09:04:21.110Z,92.65
2022-10-23T09:05:21.105Z,92.65
2022-10-23T09:06:21.090Z,91.85
2022-10-23T09:07:21.096Z,91.94
2022-10-23T09:08:21.065Z,91.70
2022-10-23T09:09:21.051Z,91.30
2022-10-23T09:10:21.063Z,91.35
2022-10-23T09:11:21.029Z,91.60
2022-10-23T09:12:21.044Z,91.46
2022-10-23T09:13:21.007Z,91.05
2022-10-23T09:14:21.006Z,90.75
2022-10-23T09:15:21.020Z,90.95
2022-10-23T09:16:20.975Z,91.11
2022-10-23T09:17:20.966Z,90.76
2022-10-23T09:18:20.981Z,90.56
2022-10-23T09:19:20.960Z,90.45
2022-10-23T09:20:20.955Z,89.91
2022-10-23T09:21:20.919Z,89.91
2022-10-23T09:22:20.908Z,89.00
2022-10-23T09:23:20.902Z,89.10
2022-10-23T09:24:20.882Z,89.06
2022-10-23T09:25:20.896Z,88.25
2022-10-23T09:26:20.864Z,89.06
2022-10-23T09:27:20.852Z,88.15
2022-10-23T09:28:20.964Z,88.45
2022-10-23T09:29:20.827Z,88.10
2022-10-23T09:30:20.849Z,87.50
2022-10-23T09:31:20.804Z,87.19
2022-10-23T09:32:20.792Z,86.08
2022-10-23T09:33:20.807Z,86.29
2022-10-23T09:34:20.786Z,86.49
2022-10-23T09:35:20.757Z,84.41
2022-10-23T09:36:20.747Z,84.81
2022-10-23T09:37:21.371Z,85.31
2022-10-23T09:38:20.726Z,84.81
2022-10-23T09:39:20.732Z,85.02
2022-10-23T09:40:20.700Z,84.31
2022-10-23T09:41:20.689Z,84.67
2022-10-23T09:42:20.679Z,84.57
2022-10-23T09:43:20.704Z,85.64
2022-10-23T09:44:20.677Z,86.04
2022-10-23T09:45:20.644Z,86.10
2022-10-23T09:46:20.635Z,86.41
2022-10-23T09:47:20.644Z,86.30
2022-10-23T09:48:20.614Z,84.95
2022-10-23T09:49:20.599Z,83.68
2022-10-23T09:50:20.608Z,84.15
2022-10-23T09:51:20.616Z,85.16
2022-10-23T09:52:20.568Z,84.75
2022-10-23T09:53:20.559Z,85.05
2022-10-23T09:54:20.545Z,84.91
2022-10-23T09:55:20.535Z,85.02
2022-10-23T09:56:24.475Z,84.71
2022-10-23T09:57:20.535Z,84.47
2022-10-23T09:58:20.499Z,83.87
2022-10-23T09:59:20.489Z,84.21
2022-10-23T10:00:20.476Z,82.05
2022-10-23T10:01:20.638Z,82.50
2022-10-23T10:02:20.498Z,82.56
2022-10-23T10:03:20.442Z,82.76
2022-10-23T10:04:20.433Z,82.86
2022-10-23T10:05:20.417Z,83.26
2022-10-23T10:06:20.443Z,83.12
2022-10-23T10:07:20.427Z,81.85
2022-10-23T10:08:20.413Z,81.41
2022-10-23T10:09:20.376Z,81.51
2022-10-23T10:10:20.370Z,83.02
2022-10-23T10:11:20.353Z,82.58
2022-10-23T10:12:20.341Z,82.38
2022-10-23T10:13:20.349Z,82.58
2022-10-23T10:14:20.318Z,81.47
2022-10-23T10:15:20.306Z,81.93
2022-10-23T10:16:20.295Z,81.93
2022-10-23T10:17:20.283Z,81.23
2022-10-23T10:18:20.293Z,80.93
2022-10-23T10:19:20.260Z,80.19
2022-10-23T10:20:20.253Z,79.92
2022-10-23T10:21:20.244Z,79.82
2022-10-23T10:22:20.245Z,79.52
2022-10-23T10:23:20.242Z,78.61
2022-10-23T10:24:20.208Z,78.91
2022-10-23T10:25:20.192Z,79.46
2022-10-23T10:26:20.282Z,78.41
2022-10-23T10:27:20.192Z,79.52
2022-10-23T10:28:20.193Z,80.73
2022-10-23T10:29:20.177Z,81.43
2022-10-23T10:30:20.161Z,81.23
2022-10-23T10:31:20.212Z,80.77
2022-10-23T10:32:20.211Z,80.93
2022-10-23T10:33:20.130Z,80.83
2022-10-23T10:34:20.126Z,80.12
2022-10-23T10:35:20.119Z,79.82
2022-10-23T10:36:20.166Z,80.63
2022-10-23T10:37:20.078Z,79.82
2022-10-23T10:38:20.066Z,81.13
2022-10-23T10:39:20.092Z,80.02
2022-10-23T10:40:20.022Z,79.82
2022-10-23T10:41:20.013Z,80.39
2022-10-23T10:42:20.001Z,80.08
2022-10-23T10:43:19.991Z,80.69
2022-10-23T10:44:19.977Z,80.99
2022-10-23T10:45:19.989Z,81.09
2022-10-23T10:46:19.959Z,81.09
2022-10-23T10:47:21.252Z,80.58
2022-10-23T10:48:19.931Z,79.24
2022-10-23T10:49:20.154Z,79.35
2022-10-23T10:50:19.932Z,76.93
2022-10-23T10:51:19.900Z,77.29
2022-10-23T10:52:19.901Z,77.39
2022-10-23T10:53:19.903Z,77.86
2022-10-23T10:54:19.883Z,78.33
2022-10-23T10:55:19.858Z,78.03
2022-10-23T10:56:19.843Z,78.19
2022-10-23T10:57:19.832Z,76.62
2022-10-23T10:58:19.840Z,75.78
2022-10-23T10:59:19.810Z,75.11
2022-10-23T11:00:19.799Z,75.48
2022-10-23T11:01:19.898Z,74.31
2022-10-23T11:02:19.922Z,75.08
2022-10-23T11:03:19.792Z,75.71
2022-10-23T11:04:20.006Z,74.91
2022-10-23T11:05:19.746Z,76.86
2022-10-23T11:06:19.756Z,76.86
2022-10-23T11:07:19.721Z,75.55
2022-10-23T11:08:19.710Z,76.56
2022-10-23T11:09:21.051Z,76.79
2022-10-23T11:10:19.706Z,74.88
2022-10-23T11:11:19.709Z,74.52
2022-10-23T11:12:19.664Z,75.42
2022-10-23T11:13:19.663Z,76.83
2022-10-23T11:14:19.641Z,77.29
2022-10-23T11:15:19.652Z,77.90
2022-10-23T11:16:19.617Z,78.06
2022-10-23T11:17:19.610Z,78.06
2022-10-23T11:18:19.594Z,77.50
2022-10-23T11:19:19.609Z,77.80
2022-10-23T11:20:19.573Z,77.20
2022-10-23T11:21:19.567Z,76.69
2022-10-23T11:22:19.590Z,76.59
2022-10-23T11:23:19.542Z,75.38
2022-10-23T11:24:19.551Z,76.59
2022-10-23T11:25:19.518Z,76.39
2022-10-23T11:26:19.915Z,75.82
2022-10-23T11:27:19.498Z,75.32
2022-10-23T11:28:19.516Z,75.52
2022-10-23T11:29:19.477Z,75.82
2022-10-23T11:30:19.482Z,77.03
2022-10-23T11:31:19.453Z,76.73
2022-10-23T11:32:19.439Z,77.23
2022-10-23T11:33:19.435Z,78.03
2022-10-23T11:34:19.419Z,78.23
2022-10-23T11:35:19.431Z,77.80
2022-10-23T11:36:19.418Z,77.20
2022-10-23T11:37:19.390Z,76.79
2022-10-23T11:38:19.374Z,76.89
2022-10-23T11:39:19.362Z,77.59
2022-10-23T11:40:19.377Z,77.80
2022-10-23T11:41:22.261Z,77.70
2022-10-23T11:42:20.344Z,77.70
2022-10-23T11:43:19.340Z,78.40
2022-10-23T11:44:19.307Z,76.09
2022-10-23T11:45:19.318Z,78.10
2022-10-23T11:46:19.287Z,78.20
2022-10-23T11:47:19.273Z,78.50
2022-10-23T11:48:19.259Z,79.00
2022-10-23T11:49:19.420Z,77.70
2022-10-23T11:50:19.261Z,78.80
2022-10-23T11:51:19.227Z,77.59
2022-10-23T11:52:19.319Z,77.90
2022-10-23T11:53:19.560Z,77.43
2022-10-23T11:54:19.193Z,76.73
2022-10-23T11:55:19.205Z,77.33
2022-10-23T11:56:19.169Z,77.33
2022-10-23T11:57:19.232Z,78.50
2022-10-23T11:58:19.167Z,78.20
2022-10-23T11:59:19.164Z,79.41
2022-10-23T12:00:19.123Z,78.30
2022-10-23T12:01:19.175Z,78.00
2022-10-23T12:02:19.193Z,76.79
2022-10-23T12:03:19.092Z,77.29
2022-10-23T12:04:19.080Z,77.59
2022-10-23T12:05:19.163Z,77.76
2022-10-23T12:06:19.083Z,77.50
2022-10-23T12:07:19.052Z,78.10
2022-10-23T12:08:19.035Z,76.69
2022-10-23T12:09:19.025Z,76.89
2022-10-23T12:10:19.012Z,77.09
2022-10-23T12:11:19.029Z,77.59
2022-10-23T12:12:18.991Z,78.60
2022-10-23T12:13:18.982Z,79.27
2022-10-23T12:14:19.018Z,79.97
2022-10-23T12:15:18.958Z,80.11
2022-10-23T12:16:18.945Z,79.77
2022-10-23T12:17:18.939Z,79.41
2022-10-23T12:18:18.925Z,79.30
2022-10-23T12:19:18.935Z,78.70
2022-10-23T12:20:18.900Z,76.79
2022-10-23T12:21:18.912Z,77.29
2022-10-23T12:22:18.877Z,77.50
2022-10-23T12:23:18.876Z,77.50
2022-10-23T12:24:18.855Z,77.33
2022-10-23T12:25:18.844Z,78.00
2022-10-23T12:26:18.862Z,78.50
2022-10-23T12:27:18.825Z,78.40
2022-10-23T12:28:18.811Z,78.50
2022-10-23T12:29:18.800Z,78.20
2022-10-23T12:30:18.812Z,78.23
2022-10-23T12:31:18.811Z,78.84
2022-10-23T12:32:18.768Z,78.90
2022-10-23T12:33:18.756Z,78.90
2022-10-23T12:34:18.750Z,79.44
2022-10-23T12:35:18.737Z,79.85
2022-10-23T12:36:18.720Z,79.44
2022-10-23T12:37:18.738Z,80.95
2022-10-23T12:38:18.699Z,80.05
2022-10-23T12:39:18.692Z,80.55
2022-10-23T12:40:18.681Z,80.75
2022-10-23T12:41:18.688Z,79.74
2022-10-23T12:42:18.653Z,80.05
2022-10-23T12:43:18.645Z,80.85
2022-10-23T12:44:18.634Z,80.55
2022-10-23T12:45:18.622Z,81.15
2022-10-23T12:46:18.651Z,79.85
2022-10-23T12:47:18.605Z,80.08
2022-10-23T12:48:18.591Z,79.64
2022-10-23T12:49:18.575Z,78.67
2022-10-23T12:50:18.566Z,77.87
2022-10-23T12:51:18.553Z,78.78
2022-10-23T12:52:18.561Z,79.18
2022-10-23T12:53:18.530Z,78.88
2022-10-23T12:54:18.520Z,79.18